Terminal Aerodrome Forecast
Issued by NWS

Home | Current Version | Previous Version | Graphics & Text | Print | Product List | Glossary On
Versions: 1 2 3 4 5 6 7 8 9 10 11 12
000
FTUS45 KGGW 181100
TAFOLF
TAF
KOLF 181129Z 1812/1912 09011KT P6SM OVC090
     FM181600 11011KT P6SM VCSH SCT050 OVC080
     FM181800 13011KT P6SM -SHRA SCT030 OVC050
     FM182100 27014KT P6SM BKN070
     FM190100 28011KT P6SM SCT100=

USA.gov is the U.S. government's official web portal to all federal, state and local government web resources and services.